Time;durP1;ratioP1;P1;durP2;ratioP2;P2;SDS_P1;SDS_P2;PMS_P1;PMS_P2;Temp;Humidity;BMP_temperature;BMP_pressure;BME280_temperature;BME280_humidity;BME280_pressure;Samples;Min_cycle;Max_cycle;Signal;HPM_P1;HPM_P2
2021/04/08 00:02:04;;;;;;;6.93;4.53;;;;;;;8.07;56.84;99840.94;5023613;28;20331;-66
2021/04/08 00:04:30;;;;;;;7.13;5.30;;;;;;;8.21;56.92;99830.75;5021894;28;20069;-66
2021/04/08 00:06:55;;;;;;;9.45;4.55;;;;;;;8.27;55.91;99822.28;5021703;28;20057;-71
2021/04/08 00:09:21;;;;;;;7.43;4.10;;;;;;;8.25;56.46;99821.59;5021790;28;20034;-66
2021/04/08 00:11:47;;;;;;;11.13;4.88;;;;;;;8.35;56.39;99829.53;5021822;28;20053;-66
2021/04/08 00:14:13;;;;;;;6.15;4.20;;;;;;;8.44;55.40;99833.09;5019814;28;20038;-67
2021/04/08 00:16:39;;;;;;;9.18;5.25;;;;;;;8.26;56.41;99828.53;5021171;28;20363;-72
2021/04/08 00:19:10;;;;;;;7.95;4.63;;;;;;;8.39;56.08;99830.91;5022425;28;20041;-71
2021/04/08 00:21:36;;;;;;;5.97;4.10;;;;;;;8.38;55.38;99825.75;5020686;28;20026;-71
2021/04/08 00:24:03;;;;;;;6.88;4.88;;;;;;;8.16;55.57;99821.63;5020775;28;20030;-67
2021/04/08 00:26:28;;;;;;;7.10;4.35;;;;;;;8.14;55.07;99823.56;5022837;28;20013;-71
2021/04/08 00:28:54;;;;;;;8.65;4.55;;;;;;;8.12;56.20;99826.34;5020885;28;20372;-71
2021/04/08 00:31:19;;;;;;;6.55;3.70;;;;;;;8.01;56.27;99816.81;5024714;28;20036;-72
2021/04/08 00:33:45;;;;;;;8.77;4.43;;;;;;;8.07;55.76;99811.94;5020624;28;20033;-69
2021/04/08 00:36:10;;;;;;;8.75;4.85;;;;;;;8.16;56.02;99816.34;5021051;28;20029;-67
2021/04/08 00:38:36;;;;;;;7.93;4.60;;;;;;;8.01;55.94;99818.63;5021097;28;20338;-72
2021/04/08 00:41:02;;;;;;;7.90;4.47;;;;;;;8.02;56.65;99815.84;5021218;28;20052;-72
2021/04/08 00:43:28;;;;;;;6.60;4.60;;;;;;;7.95;56.36;99821.84;5021913;28;20036;-66
2021/04/08 00:45:53;;;;;;;14.57;5.40;;;;;;;7.97;56.06;99826.00;5021648;28;20025;-71
2021/04/08 00:48:19;;;;;;;7.25;5.25;;;;;;;8.02;56.26;99823.75;5021439;28;20046;-71
2021/04/08 00:50:44;;;;;;;7.75;4.35;;;;;;;7.97;56.19;99828.63;5020883;28;20013;-71
2021/04/08 00:53:15;;;;;;;8.23;5.03;;;;;;;7.93;56.46;99824.63;5021341;28;20037;-66
2021/04/08 00:55:44;;;;;;;6.55;4.70;;;;;;;7.93;56.96;99839.59;5020128;28;20033;-66
2021/04/08 00:58:10;;;;;;;6.20;4.70;;;;;;;7.91;57.37;99838.91;5024697;28;20288;-66
2021/04/08 01:00:39;;;;;;;9.05;5.30;;;;;;;7.59;57.83;99837.44;5021005;28;20038;-67
2021/04/08 01:03:06;;;;;;;8.82;5.30;;;;;;;7.51;57.35;99837.31;5020114;28;20030;-72
2021/04/08 01:05:31;;;;;;;8.82;5.70;;;;;;;7.68;57.76;99836.59;5023984;28;20221;-66
2021/04/08 01:07:57;;;;;;;8.23;5.25;;;;;;;7.72;57.77;99854.78;5025009;28;20033;-66
2021/04/08 01:10:24;;;;;;;9.45;5.88;;;;;;;7.64;58.46;99866.84;5024510;28;20057;-66
2021/04/08 01:12:52;;;;;;;8.52;5.53;;;;;;;7.39;57.80;99871.84;5024645;28;20021;-66
2021/04/08 01:15:18;;;;;;;12.18;6.65;;;;;;;7.38;58.81;99870.19;5025106;28;20198;-71
2021/04/08 01:18:12;;;;;;;16.15;7.40;;;;;;;6.80;61.50;99884.06;5024092;28;20048;-66
2021/04/08 01:21:01;;;;;;;10.70;6.43;;;;;;;6.63;63.64;99882.09;5024563;28;20048;-71
2021/04/08 01:23:48;;;;;;;9.43;6.18;;;;;;;7.06;63.08;99868.59;5041479;28;20344;-71
2021/04/08 01:26:39;;;;;;;7.85;5.38;;;;;;;7.36;60.93;99872.97;5026120;28;20033;-71
2021/04/08 01:29:47;;;;;;;7.55;5.65;;;;;;;7.57;60.73;99872.81;5025107;28;20049;-72
2021/04/08 01:32:15;;;;;;;10.80;5.70;;;;;;;7.68;60.79;99878.78;5024977;28;20029;-70
2021/04/08 01:34:45;;;;;;;11.05;6.00;;;;;;;7.89;60.77;99885.69;5026854;28;20076;-71
2021/04/08 01:37:11;;;;;;;10.45;6.25;;;;;;;8.04;60.83;99876.34;5027252;28;20033;-66
2021/04/08 01:39:41;;;;;;;9.50;6.60;;;;;;;8.13;60.83;99886.03;5026009;28;20041;-71
2021/04/08 01:42:08;;;;;;;12.75;6.18;;;;;;;8.09;59.54;99889.94;5029413;28;20033;-72
2021/04/08 01:44:35;;;;;;;8.77;6.43;;;;;;;8.26;59.22;99883.94;5025025;28;20064;-71
2021/04/08 01:47:06;;;;;;;12.10;6.72;;;;;;;8.23;59.15;99889.50;5035535;28;20025;-66
2021/04/08 01:49:35;;;;;;;11.05;6.65;;;;;;;8.43;59.23;99892.97;5043870;28;20043;-67
2021/04/08 01:52:01;;;;;;;10.68;6.63;;;;;;;8.42;58.59;99903.66;5035713;28;20026;-67
2021/04/08 01:54:30;;;;;;;10.07;6.47;;;;;;;8.52;58.81;99899.16;5023483;28;20105;-67
2021/04/08 01:57:01;;;;;;;10.23;6.15;;;;;;;8.59;58.02;99895.81;5024611;28;20022;-71
2021/04/08 01:59:28;;;;;;;10.52;6.55;;;;;;;8.41;58.57;99900.19;5023666;28;20038;-66
2021/04/08 02:01:56;;;;;;;11.52;6.63;;;;;;;8.45;57.16;99903.38;5024719;28;20030;-66
2021/04/08 02:04:23;;;;;;;9.18;6.60;;;;;;;8.27;57.79;99903.22;5023462;28;20370;-69
2021/04/08 02:06:49;;;;;;;12.18;7.65;;;;;;;8.23;58.54;99912.41;5024125;28;20049;-66
2021/04/08 02:09:16;;;;;;;11.98;7.68;;;;;;;8.24;59.46;99914.91;5023938;28;20021;-66
2021/04/08 02:11:45;;;;;;;12.30;7.63;;;;;;;8.13;59.86;99909.78;5022290;28;20093;-66
2021/04/08 02:14:14;;;;;;;12.35;7.35;;;;;;;8.27;59.78;99919.88;5025521;28;20044;-72
2021/04/08 02:16:44;;;;;;;13.73;7.55;;;;;;;8.22;60.40;99922.13;5023073;28;20033;-72
2021/04/08 02:19:10;;;;;;;11.70;8.13;;;;;;;8.42;60.05;99925.59;5023207;28;20033;-72
2021/04/08 02:21:37;;;;;;;10.82;7.03;;;;;;;8.51;59.70;99922.09;5023466;28;20243;-66
2021/04/08 02:24:03;;;;;;;11.43;7.10;;;;;;;8.42;59.59;99907.13;5024660;28;20034;-68
2021/04/08 02:26:30;;;;;;;11.65;7.18;;;;;;;8.35;60.06;99918.41;5023876;28;20036;-66
2021/04/08 02:28:58;;;;;;;10.48;6.82;;;;;;;8.30;60.09;99926.69;5023170;28;20085;-73
2021/04/08 02:31:24;;;;;;;8.98;7.10;;;;;;;8.20;60.41;99928.50;5024539;28;20366;-71
2021/04/08 02:33:49;;;;;;;12.93;7.68;;;;;;;8.17;60.68;99929.63;5023647;28;20058;-66
2021/04/08 02:36:15;;;;;;;15.38;7.70;;;;;;;8.12;62.09;99937.13;5023542;28;20025;-72
2021/04/08 02:38:40;;;;;;;9.88;7.25;;;;;;;8.18;62.39;99947.13;5023948;28;20048;-72
2021/04/08 02:41:08;;;;;;;13.30;7.88;;;;;;;8.09;62.72;99957.69;5023172;28;20096;-73
2021/04/08 02:43:35;;;;;;;14.40;7.70;;;;;;;8.15;62.51;99967.66;5023647;28;20049;-67
2021/04/08 02:46:00;;;;;;;13.75;7.75;;;;;;;8.21;63.15;99964.47;5022681;28;20034;-71
2021/04/08 02:48:26;;;;;;;12.43;8.10;;;;;;;8.46;61.74;99960.44;5022586;28;20256;-66
2021/04/08 02:50:54;;;;;;;10.90;6.95;;;;;;;8.54;61.22;99971.13;5022493;28;20068;-66
2021/04/08 02:53:34;;;;;;;12.85;7.22;;;;;;;8.51;62.18;99968.75;5022562;28;20026;-71
2021/04/08 02:56:12;;;;;;;10.98;7.00;;;;;;;8.21;62.45;99965.28;5022799;28;20198;-71
2021/04/08 02:58:39;;;;;;;10.35;6.70;;;;;;;8.22;62.81;99966.13;5022358;28;20200;-66
2021/04/08 03:01:18;;;;;;;11.55;6.50;;;;;;;8.36;62.54;99981.56;5022625;28;20056;-73
2021/04/08 03:03:51;;;;;;;12.27;6.85;;;;;;;8.59;62.23;99990.00;5021922;28;20049;-72
2021/04/08 03:06:18;;;;;;;12.63;6.97;;;;;;;8.52;60.34;99995.00;5024459;28;20081;-71
2021/04/08 03:08:48;;;;;;;11.80;7.18;;;;;;;8.40;59.83;99990.03;5024519;28;20042;-66
2021/04/08 03:11:15;;;;;;;10.10;7.03;;;;;;;8.37;61.41;99987.69;5022201;28;20018;-70
2021/04/08 03:13:44;;;;;;;11.07;7.20;;;;;;;7.97;61.59;99986.00;5022980;28;20030;-71
2021/04/08 03:16:17;;;;;;;10.48;6.78;;;;;;;7.68;60.93;99996.53;5023320;28;20313;-66
2021/04/08 03:18:44;;;;;;;10.13;6.70;;;;;;;7.45;64.37;99992.50;5022443;28;20049;-66
2021/04/08 03:21:11;;;;;;;14.80;7.70;;;;;;;7.41;64.23;99977.94;5021288;28;20040;-71
2021/04/08 03:23:37;;;;;;;12.73;8.23;;;;;;;7.64;65.03;99995.16;5022336;28;20057;-71
2021/04/08 03:26:04;;;;;;;12.73;8.10;;;;;;;7.55;64.86;99993.34;5022536;28;20072;-67
2021/04/08 03:28:30;;;;;;;12.63;7.82;;;;;;;7.69;64.75;99998.22;5022322;28;20033;-67
2021/04/08 03:30:56;;;;;;;11.38;7.30;;;;;;;7.76;64.07;99991.41;5021879;28;20223;-67
2021/04/08 03:33:23;;;;;;;11.75;6.68;;;;;;;7.78;63.80;99989.47;5021855;28;20096;-72
2021/04/08 03:35:49;;;;;;;11.90;7.43;;;;;;;7.75;64.10;99997.66;5022398;28;20037;-66
2021/04/08 03:38:19;;;;;;;11.20;7.32;;;;;;;7.88;63.03;100002.66;5021380;28;20100;-66
2021/04/08 03:40:46;;;;;;;9.85;6.90;;;;;;;7.91;63.94;100007.66;5025253;28;20211;-71
2021/04/08 03:43:13;;;;;;;13.77;7.63;;;;;;;7.98;63.20;100014.88;5021931;28;20196;-66
2021/04/08 03:45:39;;;;;;;15.18;7.35;;;;;;;7.97;62.81;100007.94;5021985;28;20081;-71
2021/04/08 03:48:08;;;;;;;12.13;7.63;;;;;;;7.94;62.47;100016.13;5022326;28;20041;-66
2021/04/08 03:50:34;;;;;;;12.20;7.63;;;;;;;7.83;62.94;100020.69;5023740;28;20029;-72
2021/04/08 03:53:00;;;;;;;10.55;6.95;;;;;;;7.80;63.80;100023.59;5022490;28;20037;-72
2021/04/08 03:55:27;;;;;;;10.75;7.05;;;;;;;7.88;63.85;100011.41;5022639;28;20030;-72
2021/04/08 03:57:54;;;;;;;10.88;7.10;;;;;;;8.09;62.09;100016.53;5024093;28;20040;-67
2021/04/08 04:00:20;;;;;;;18.85;9.32;;;;;;;8.04;63.42;100025.84;5024749;28;20328;-66
2021/04/08 04:02:47;;;;;;;13.05;7.85;;;;;;;8.23;62.05;100034.56;5022062;28;20080;-66
2021/04/08 04:05:13;;;;;;;10.25;7.30;;;;;;;8.32;61.05;100032.91;5020753;28;20061;-66
2021/04/08 04:07:41;;;;;;;11.48;7.15;;;;;;;8.06;62.54;100032.63;5022747;28;20211;-71
2021/04/08 04:10:07;;;;;;;12.45;7.68;;;;;;;7.99;62.84;100037.63;5021377;28;20041;-66
2021/04/08 04:12:36;;;;;;;13.98;8.40;;;;;;;7.86;62.41;100041.50;5021235;28;20021;-71
2021/04/08 04:15:06;;;;;;;14.75;8.45;;;;;;;7.75;63.19;100034.56;5022170;28;20037;-66
2021/04/08 04:17:33;;;;;;;14.80;8.95;;;;;;;8.01;61.99;100053.31;5021130;28;20079;-67
2021/04/08 04:19:59;;;;;;;18.45;10.88;;;;;;;8.00;62.51;100049.84;5021097;28;20036;-67
2021/04/08 04:22:25;;;;;;;17.58;9.60;;;;;;;7.92;61.87;100062.06;5021711;28;20049;-72
2021/04/08 04:24:51;;;;;;;16.95;9.15;;;;;;;7.76;61.22;100062.59;5021028;28;20034;-65
2021/04/08 04:27:17;;;;;;;19.80;8.98;;;;;;;7.64;60.00;100048.69;5021066;28;20038;-71
2021/04/08 04:29:42;;;;;;;37.20;15.52;;;;;;;7.51;60.06;100063.09;5021164;28;20100;-65
2021/04/08 04:32:09;;;;;;;20.98;9.68;;;;;;;6.97;62.24;100072.97;5021706;28;20316;-64
2021/04/08 04:34:41;;;;;;;14.20;7.93;;;;;;;6.82;62.10;100074.28;5021178;28;20060;-64
2021/04/08 04:37:07;;;;;;;15.73;8.90;;;;;;;6.59;63.67;100086.75;5021027;28;20347;-64
2021/04/08 04:39:33;;;;;;;17.63;9.43;;;;;;;6.55;63.28;100090.59;5020128;28;20029;-70
2021/04/08 04:41:58;;;;;;;22.75;10.63;;;;;;;6.49;63.46;100083.22;5026468;28;20041;-65
2021/04/08 04:44:24;;;;;;;18.05;10.38;;;;;;;6.68;63.76;100098.28;5024392;28;20041;-70
2021/04/08 04:46:51;;;;;;;16.67;9.63;;;;;;;6.81;63.18;100084.94;5026596;28;20193;-66
2021/04/08 04:49:16;;;;;;;18.58;10.43;;;;;;;7.13;62.95;100095.38;5025320;28;20096;-71
2021/04/08 04:51:42;;;;;;;17.00;9.25;;;;;;;7.40;62.34;100097.44;5025483;28;20061;-71
2021/04/08 04:54:07;;;;;;;15.60;8.95;;;;;;;7.64;60.80;100106.69;5024420;28;20323;-66
2021/04/08 04:56:33;;;;;;;12.35;8.40;;;;;;;7.80;60.39;100100.88;5024585;28;21174;-71
2021/04/08 04:58:58;;;;;;;15.88;9.63;;;;;;;7.94;60.69;100094.41;5025184;28;20080;-71
2021/04/08 05:01:24;;;;;;;22.02;12.75;;;;;;;7.86;60.03;100089.81;5025523;28;20089;-71
2021/04/08 05:03:49;;;;;;;30.80;16.55;;;;;;;7.89;59.59;100101.88;5023981;28;20315;-66
2021/04/08 05:06:14;;;;;;;24.10;12.65;;;;;;;7.98;58.99;100107.16;5025307;28;20032;-67
2021/04/08 05:08:40;;;;;;;22.15;10.00;;;;;;;7.83;58.91;100102.41;5024989;28;20104;-72
2021/04/08 05:11:06;;;;;;;17.88;10.85;;;;;;;7.87;59.15;100117.00;5024162;28;20044;-66
2021/04/08 05:13:31;;;;;;;20.00;10.82;;;;;;;8.11;59.22;100124.53;5026222;28;20056;-71
2021/04/08 05:15:57;;;;;;;19.50;9.70;;;;;;;8.23;59.15;100132.19;5025141;28;20312;-66
2021/04/08 05:18:22;;;;;;;23.90;12.00;;;;;;;8.37;57.73;100125.72;5024516;28;20289;-66
2021/04/08 05:20:48;;;;;;;22.90;12.05;;;;;;;8.70;55.54;100123.63;5023481;28;20088;-66
2021/04/08 05:23:14;;;;;;;21.77;11.75;;;;;;;8.86;56.87;100126.53;5024793;28;20044;-66
2021/04/08 05:25:40;;;;;;;17.23;10.00;;;;;;;8.81;56.30;100137.50;5024627;28;20037;-66
2021/04/08 05:28:05;;;;;;;21.25;11.80;;;;;;;8.63;56.33;100128.63;5024579;28;20105;-71
2021/04/08 05:30:30;;;;;;;18.33;10.68;;;;;;;8.44;56.08;100126.84;5023175;28;20205;-66
2021/04/08 05:32:56;;;;;;;19.58;10.52;;;;;;;8.10;57.86;100134.25;5024967;28;20037;-72
2021/04/08 05:35:22;;;;;;;18.15;10.80;;;;;;;8.30;58.16;100135.09;5028147;28;20093;-66
2021/04/08 05:37:47;;;;;;;16.88;10.57;;;;;;;8.51;56.27;100127.94;5028603;28;20037;-67
2021/04/08 05:40:13;;;;;;;33.97;17.17;;;;;;;8.31;57.98;100134.97;5033512;28;20033;-65
2021/04/08 05:42:43;;;;;;;30.75;15.60;;;;;;;8.31;56.89;100139.41;5033610;28;20034;-71
2021/04/08 05:45:09;;;;;;;20.10;9.05;;;;;;;8.18;56.64;100146.75;5027220;28;20038;-66
2021/04/08 05:47:34;;;;;;;19.83;9.30;;;;;;;8.22;57.95;100142.88;5025482;28;20193;-66
2021/04/08 05:49:59;;;;;;;22.52;10.45;;;;;;;8.40;56.81;100141.28;5026277;28;20026;-66
2021/04/08 05:52:25;;;;;;;33.08;14.70;;;;;;;8.39;58.12;100151.97;5023490;28;20329;-71
2021/04/08 05:54:50;;;;;;;19.88;10.88;;;;;;;8.43;57.59;100148.09;5023583;28;20040;-71
2021/04/08 05:57:15;;;;;;;16.73;8.98;;;;;;;8.30;57.50;100146.50;5023999;28;20037;-66
2021/04/08 05:59:41;;;;;;;21.85;9.50;;;;;;;8.32;58.71;100147.22;5025813;28;20093;-72
2021/04/08 06:02:06;;;;;;;19.83;8.85;;;;;;;8.36;58.38;100155.72;5024625;28;20254;-66
2021/04/08 06:04:32;;;;;;;16.85;9.68;;;;;;;8.34;58.65;100156.84;5023794;28;20065;-67
2021/04/08 06:06:57;;;;;;;14.82;9.20;;;;;;;8.19;59.22;100162.44;5023617;28;20300;-71
2021/04/08 06:09:23;;;;;;;14.82;8.70;;;;;;;8.21;58.62;100164.94;5023381;28;20029;-65
2021/04/08 06:11:48;;;;;;;17.38;9.52;;;;;;;8.19;58.81;100159.81;5020999;28;20029;-72
2021/04/08 06:14:14;;;;;;;16.70;9.05;;;;;;;8.27;59.23;100156.47;5025897;28;20092;-66
2021/04/08 06:16:39;;;;;;;13.30;7.93;;;;;;;8.21;59.13;100155.22;5023097;28;20030;-66
2021/04/08 06:19:04;;;;;;;16.77;9.45;;;;;;;8.39;60.01;100155.44;5023346;28;20056;-71
2021/04/08 06:21:30;;;;;;;17.38;8.98;;;;;;;8.39;58.21;100147.53;5032534;28;20050;-66
2021/04/08 06:23:56;;;;;;;14.98;9.02;;;;;;;8.55;57.95;100147.81;5031180;28;20032;-72
2021/04/08 06:26:22;;;;;;;17.95;8.07;;;;;;;8.59;56.99;100135.16;5034171;28;20101;-72
2021/04/08 06:28:48;;;;;;;18.73;8.50;;;;;;;8.94;54.38;100142.50;5036666;28;20071;-72
2021/04/08 06:31:13;;;;;;;16.70;7.78;;;;;;;9.09;53.99;100149.00;5042144;28;20220;-66
2021/04/08 06:33:39;;;;;;;14.93;7.47;;;;;;;9.48;54.92;100148.91;5040092;28;20386;-71
2021/04/08 06:36:08;;;;;;;15.35;8.27;;;;;;;9.62;53.11;100153.72;5035785;28;20213;-73
2021/04/08 06:38:34;;;;;;;18.73;8.57;;;;;;;9.75;54.39;100156.03;5034275;28;20030;-73
2021/04/08 06:40:59;;;;;;;17.02;9.35;;;;;;;9.46;52.85;100156.97;5033454;28;20029;-66
2021/04/08 06:43:26;;;;;;;15.25;9.00;;;;;;;9.33;53.50;100164.38;5033551;28;20216;-71
2021/04/08 06:45:53;;;;;;;18.45;8.52;;;;;;;9.41;53.68;100164.50;5034994;28;20028;-67
2021/04/08 06:48:32;;;;;;;16.48;7.63;;;;;;;9.36;53.04;100169.38;5036183;28;20045;-66
2021/04/08 06:51:00;;;;;;;16.52;8.55;;;;;;;9.47;53.22;100174.50;5041458;28;20063;-72
2021/04/08 06:53:27;;;;;;;17.35;8.60;;;;;;;9.24;53.85;100178.44;5037265;28;20263;-72
2021/04/08 06:55:53;;;;;;;15.32;9.02;;;;;;;9.25;54.47;100177.47;5032560;28;20093;-72
2021/04/08 06:58:19;;;;;;;14.90;7.57;;;;;;;9.34;53.80;100181.06;5033229;28;20037;-68
2021/04/08 07:00:44;;;;;;;15.73;7.05;;;;;;;9.37;53.07;100183.44;5034497;28;20369;-66
2021/04/08 07:03:10;;;;;;;16.45;8.30;;;;;;;9.51;55.18;100191.75;5034197;28;20017;-65
2021/04/08 07:05:36;;;;;;;15.77;9.13;;;;;;;9.14;53.49;100181.09;5036266;28;20405;-71
2021/04/08 07:08:01;;;;;;;10.60;5.85;;;;;;;9.20;52.35;100196.38;5031695;28;20045;-71
2021/04/08 07:10:27;;;;;;;14.48;7.88;;;;;;;9.39;52.60;100192.91;5040641;28;20219;-73
2021/04/08 07:12:54;;;;;;;16.13;7.72;;;;;;;9.42;53.42;100195.25;5041132;28;20025;-73
2021/04/08 07:15:21;;;;;;;18.77;9.60;;;;;;;9.59;52.13;100206.88;5030866;28;20319;-74
2021/04/08 07:17:46;;;;;;;11.80;6.80;;;;;;;9.54;50.58;100206.47;5033618;28;20319;-73
2021/04/08 07:20:13;;;;;;;11.38;6.78;;;;;;;9.48;51.45;100205.25;5033426;28;20037;-72
2021/04/08 07:22:38;;;;;;;12.02;6.45;;;;;;;9.47;50.90;100211.50;5032930;28;20049;-74
2021/04/08 07:25:21;;;;;;;11.75;7.18;;;;;;;9.47;51.38;100210.69;5032812;28;20033;-69
2021/04/08 07:27:46;;;;;;;14.20;6.50;;;;;;;9.64;50.28;100219.66;5031211;28;20036;-68
2021/04/08 07:30:17;;;;;;;11.75;6.20;;;;;;;9.77;50.85;100231.59;5030710;28;20029;-72
2021/04/08 07:32:42;;;;;;;11.15;7.18;;;;;;;9.74;51.75;100239.81;5032175;28;20026;-68
2021/04/08 07:35:14;;;;;;;13.00;7.63;;;;;;;9.40;51.13;100238.66;5033581;28;20036;-73
2021/04/08 07:37:42;;;;;;;12.15;6.65;;;;;;;9.46;50.94;100243.38;5033570;28;20033;-73
2021/04/08 07:40:19;;;;;;;13.65;6.07;;;;;;;9.53;50.87;100247.94;5040906;28;20038;-68
2021/04/08 07:42:45;;;;;;;14.00;7.15;;;;;;;9.52;51.95;100248.91;5040149;28;20025;-68
2021/04/08 07:45:28;;;;;;;14.65;6.63;;;;;;;9.30;51.08;100262.44;5040244;28;20032;-73
2021/04/08 07:48:02;;;;;;;10.90;6.57;;;;;;;9.27;51.81;100260.91;5038944;28;20338;-74
2021/04/08 07:50:29;;;;;;;18.55;7.97;;;;;;;9.37;50.24;100268.00;5037661;28;20036;-69
2021/04/08 07:52:55;;;;;;;16.08;8.13;;;;;;;9.16;52.03;100276.06;5041641;28;20092;-69
2021/04/08 07:55:22;;;;;;;15.45;7.50;;;;;;;9.16;51.76;100262.88;5040653;28;20243;-73
2021/04/08 07:58:00;;;;;;;13.35;7.30;;;;;;;9.21;50.48;100258.00;5039711;28;20014;-72
2021/04/08 08:00:29;;;;;;;19.02;9.40;;;;;;;8.86;51.91;100248.00;5039835;28;20079;-65
2021/04/08 08:02:58;;;;;;;14.50;8.10;;;;;;;9.14;51.48;100262.16;5040497;28;20108;-68
2021/04/08 08:05:40;;;;;;;11.73;6.65;;;;;;;9.25;50.99;100262.03;5039796;28;20071;-67
2021/04/08 08:08:16;;;;;;;14.50;7.80;;;;;;;9.17;51.00;100269.81;5040609;28;20056;-68
2021/04/08 08:10:54;;;;;;;12.02;6.95;;;;;;;9.42;50.42;100263.13;5040477;28;20026;-68
2021/04/08 08:13:46;;;;;;;16.92;7.57;;;;;;;9.72;49.61;100270.84;5038731;28;20036;-68
2021/04/08 08:16:18;;;;;;;13.05;6.95;;;;;;;9.69;48.83;100278.25;5039548;28;20043;-68
2021/04/08 08:18:44;;;;;;;11.82;7.38;;;;;;;9.60;48.49;100272.00;5039838;28;20245;-74
2021/04/08 08:21:13;;;;;;;15.95;8.48;;;;;;;9.77;49.18;100288.94;5039671;28;20270;-73
2021/04/08 08:23:59;;;;;;;16.73;7.30;;;;;;;9.73;49.61;100295.50;5038422;28;20060;-68
2021/04/08 08:26:35;;;;;;;12.68;6.10;;;;;;;9.53;48.35;100306.09;5030103;28;20092;-71
2021/04/08 08:29:02;;;;;;;14.68;6.80;;;;;;;9.52;48.44;100309.72;5029521;28;20327;-67
2021/04/08 08:31:39;;;;;;;13.95;7.53;;;;;;;9.65;47.79;100306.78;5028800;28;20056;-73
2021/04/08 08:34:08;;;;;;;10.10;5.82;;;;;;;9.78;46.53;100301.19;5033452;28;20029;-68
2021/04/08 08:36:34;;;;;;;13.85;6.35;;;;;;;9.81;46.17;100301.72;5030128;28;20244;-66
2021/04/08 08:39:02;;;;;;;11.27;6.50;;;;;;;9.90;46.09;100306.16;5028363;28;20045;-69
2021/04/08 08:41:31;;;;;;;11.68;5.75;;;;;;;9.83;46.65;100306.88;5028358;28;20032;-72
2021/04/08 08:43:57;;;;;;;11.32;6.32;;;;;;;9.89;46.22;100304.50;5031943;28;20037;-71
2021/04/08 08:46:27;;;;;;;11.82;5.28;;;;;;;10.06;44.68;100305.53;5032090;28;20076;-72
2021/04/08 08:48:54;;;;;;;10.32;6.10;;;;;;;10.28;45.57;100311.47;5030446;28;20118;-71
2021/04/08 08:51:23;;;;;;;9.38;5.28;;;;;;;10.10;45.52;100322.81;5029569;28;20041;-65
2021/04/08 08:53:53;;;;;;;12.15;4.75;;;;;;;10.19;45.08;100321.94;5033060;28;20030;-71
2021/04/08 08:56:25;;;;;;;11.50;5.13;;;;;;;10.27;44.60;100331.81;5031826;28;20037;-65
2021/04/08 08:58:52;;;;;;;10.00;5.15;;;;;;;10.31;44.70;100319.97;5028456;28;20062;-72
2021/04/08 09:01:19;;;;;;;11.70;6.47;;;;;;;10.26;43.74;100332.81;5028246;28;20041;-66
2021/04/08 09:03:44;;;;;;;23.67;11.43;;;;;;;10.59;43.85;100334.06;5030914;28;20042;-71
2021/04/08 09:06:10;;;;;;;15.82;9.38;;;;;;;10.70;43.49;100336.50;5031284;28;20033;-72
2021/04/08 09:08:38;;;;;;;10.55;6.30;;;;;;;10.76;43.86;100340.38;5027627;28;20063;-66
2021/04/08 09:11:04;;;;;;;8.73;5.25;;;;;;;10.77;42.43;100332.28;5029931;28;20037;-66
2021/04/08 09:13:30;;;;;;;12.93;7.65;;;;;;;10.90;42.27;100323.97;5029487;28;20033;-71
2021/04/08 09:16:00;;;;;;;7.57;4.88;;;;;;;11.04;41.30;100334.06;5029223;28;20300;-66
2021/04/08 09:18:26;;;;;;;9.65;5.45;;;;;;;11.15;40.88;100340.94;5029433;28;20060;-65
2021/04/08 09:20:53;;;;;;;10.95;6.20;;;;;;;11.03;41.56;100324.44;5031630;28;20017;-65
2021/04/08 09:23:21;;;;;;;8.50;4.93;;;;;;;10.87;39.70;100329.56;5032242;28;20029;-72
2021/04/08 09:25:46;;;;;;;10.63;4.97;;;;;;;11.04;42.46;100341.16;5030070;28;20037;-71
2021/04/08 09:28:14;;;;;;;10.15;4.25;;;;;;;10.78;40.74;100346.38;5030946;28;20247;-65
2021/04/08 09:33:15;;;;;;;9.45;4.20;;;;;;;11.38;39.11;100320.94;5037680;28;20247;-71
2021/04/08 09:35:41;;;;;;;5.70;3.47;;;;;;;11.35;35.79;100325.72;5034970;28;20021;-71
2021/04/08 09:38:06;;;;;;;7.18;3.92;;;;;;;11.20;37.69;100338.69;5044256;28;20029;-72
2021/04/08 09:40:41;;;;;;;7.97;4.32;;;;;;;11.15;38.32;100339.13;5043287;28;20247;-71
2021/04/08 09:43:12;;;;;;;8.13;3.85;;;;;;;10.94;34.92;100335.94;5043727;28;20312;-66
2021/04/08 09:45:48;;;;;;;7.72;3.42;;;;;;;11.26;37.36;100338.06;5041128;28;20046;-72
2021/04/08 09:48:16;;;;;;;9.43;5.22;;;;;;;10.82;38.06;100300.03;5035652;28;20034;-72
2021/04/08 09:50:43;;;;;;;10.85;5.53;;;;;;;10.77;38.94;100340.22;5039014;28;20045;-66
2021/04/08 09:53:09;;;;;;;12.27;4.93;;;;;;;10.33;39.65;100348.94;5035453;28;20033;-71
2021/04/08 09:55:35;;;;;;;8.82;4.88;;;;;;;10.49;40.22;100349.16;5033828;28;20018;-65
2021/04/08 09:58:03;;;;;;;9.25;3.70;;;;;;;10.73;40.08;100351.28;5035769;28;20310;-71
2021/04/08 10:00:28;;;;;;;7.25;3.90;;;;;;;10.64;40.29;100346.88;5032368;28;20037;-65
2021/04/08 10:03:01;;;;;;;7.43;4.00;;;;;;;10.56;40.69;100339.66;5039356;28;20033;-66
2021/04/08 10:05:35;;;;;;;8.02;4.20;;;;;;;10.51;41.72;100344.56;5042383;28;20029;-66
2021/04/08 10:08:02;;;;;;;12.48;5.00;;;;;;;10.52;41.75;100346.22;5033483;28;20042;-71
2021/04/08 10:10:36;;;;;;;10.30;4.50;;;;;;;10.51;40.61;100347.22;5040460;28;20084;-71
2021/04/08 10:13:20;;;;;;;7.30;4.72;;;;;;;10.66;41.18;100350.19;5042479;28;20030;-65
2021/04/08 10:15:48;;;;;;;13.95;4.65;;;;;;;10.76;40.43;100359.75;5034905;28;20093;-65
2021/04/08 10:18:20;;;;;;;10.30;4.68;;;;;;;10.72;41.22;100355.75;5034269;28;20017;-72
2021/04/08 10:20:54;;;;;;;7.93;4.85;;;;;;;10.78;40.94;100355.16;5034826;28;20356;-71
2021/04/08 10:23:36;;;;;;;10.75;5.20;;;;;;;10.91;42.62;100357.44;5041443;28;20025;-65
2021/04/08 10:26:06;;;;;;;7.88;4.55;;;;;;;10.92;42.62;100358.28;5035266;28;20088;-71
2021/04/08 10:28:39;;;;;;;10.05;4.57;;;;;;;11.08;42.72;100367.22;5033861;28;20136;-71
2021/04/08 10:31:29;;;;;;;6.60;4.55;;;;;;;11.09;42.55;100366.25;5032044;28;20040;-71
2021/04/08 10:34:04;;;;;;;10.55;5.53;;;;;;;11.18;43.56;100367.16;5032463;28;20037;-71
2021/04/08 10:36:35;;;;;;;8.95;4.38;;;;;;;10.94;43.59;100367.75;5032296;28;20052;-71
2021/04/08 10:39:14;;;;;;;13.68;6.50;;;;;;;10.69;43.31;100371.94;5031867;28;20037;-72
2021/04/08 10:41:56;;;;;;;8.07;4.80;;;;;;;10.85;44.02;100368.63;5032982;28;20036;-71
2021/04/08 10:44:21;;;;;;;10.45;6.20;;;;;;;11.01;44.08;100379.41;5030808;28;20714;-71
2021/04/08 10:46:47;;;;;;;9.38;4.47;;;;;;;10.87;44.12;100379.91;5032454;28;20037;-66
2021/04/08 10:49:29;;;;;;;10.23;6.07;;;;;;;10.82;44.69;100377.72;5033554;28;20033;-65
2021/04/08 10:51:56;;;;;;;9.05;5.13;;;;;;;10.85;43.86;100373.94;5032856;28;20327;-70
2021/04/08 10:54:32;;;;;;;9.88;5.28;;;;;;;10.98;44.38;100369.09;5034901;28;20304;-71
2021/04/08 10:56:58;;;;;;;10.88;5.43;;;;;;;11.05;45.10;100364.88;5034365;28;20121;-72
2021/04/08 10:59:25;;;;;;;10.95;6.10;;;;;;;11.13;43.37;100372.91;5034783;28;20030;-65
2021/04/08 11:01:52;;;;;;;10.10;4.30;;;;;;;11.02;43.02;100385.53;5031783;28;20331;-71
2021/04/08 11:04:19;;;;;;;8.30;4.47;;;;;;;10.92;44.43;100377.66;5033341;28;20068;-72
2021/04/08 11:06:49;;;;;;;9.55;4.22;;;;;;;11.05;42.70;100382.59;5033518;28;20057;-72
2021/04/08 11:09:22;;;;;;;8.18;3.97;;;;;;;11.01;42.88;100341.47;5030944;28;20037;-65
2021/04/08 11:11:48;;;;;;;7.93;4.33;;;;;;;11.35;44.05;100376.94;5030948;28;20076;-65
2021/04/08 11:14:21;;;;;;;9.45;4.20;;;;;;;11.27;42.62;100381.31;5033325;28;20030;-66
2021/04/08 11:16:47;;;;;;;6.53;4.18;;;;;;;11.19;42.66;100367.00;5029738;28;20255;-70
2021/04/08 11:19:13;;;;;;;9.80;4.97;;;;;;;11.20;41.75;100373.13;5033301;28;20108;-70
2021/04/08 11:21:39;;;;;;;5.30;3.55;;;;;;;11.19;41.17;100376.78;5040519;28;20082;-65
2021/04/08 11:24:05;;;;;;;17.10;5.60;;;;;;;11.14;41.63;100369.28;5038263;28;20052;-72
2021/04/08 11:26:30;;;;;;;9.80;4.85;;;;;;;11.16;41.23;100377.06;5030673;28;20029;-65
2021/04/08 11:28:59;;;;;;;9.57;4.45;;;;;;;11.13;41.48;100374.72;5031483;28;20035;-71
2021/04/08 11:31:26;;;;;;;8.40;4.38;;;;;;;11.14;41.97;100384.34;5032077;28;20038;-70
2021/04/08 11:33:58;;;;;;;12.88;4.53;;;;;;;11.43;41.54;100365.56;5030884;28;20041;-71
2021/04/08 11:36:24;;;;;;;7.18;3.97;;;;;;;11.37;41.75;100376.78;5030851;28;20038;-71